Time;durP1;ratioP1;P1;durP2;ratioP2;P2;SDS_P1;SDS_P2;PMS_P1;PMS_P2;Temp;Humidity;BMP_temperature;BMP_pressure;BME280_temperature;BME280_humidity;BME280_pressure;Samples;Min_cycle;Max_cycle;Signal;HPM_P1;HPM_P2
2024/03/29 00:01:16;;;;;;;41.83;37.75;;;8.40;86.80;;;;;;5028902;28;112794;-55
2024/03/29 00:03:42;;;;;;;45.90;41.35;;;8.30;86.70;;;;;;5028562;28;112744;-54
2024/03/29 00:06:08;;;;;;;43.10;39.00;;;8.30;86.80;;;;;;5027568;27;114839;-53
2024/03/29 00:08:34;;;;;;;40.67;36.95;;;8.30;87.00;;;;;;5027497;27;114029;-54
2024/03/29 00:11:00;;;;;;;41.15;37.15;;;8.30;86.90;;;;;;5027267;28;112752;-55
2024/03/29 00:13:26;;;;;;;39.97;36.22;;;8.20;86.60;;;;;;5028690;28;113025;-55
2024/03/29 00:15:52;;;;;;;41.47;37.45;;;8.20;86.80;;;;;;5027335;27;114614;-54
2024/03/29 00:18:18;;;;;;;41.75;37.78;;;8.10;86.80;;;;;;5027135;28;113464;-56
2024/03/29 00:20:43;;;;;;;44.13;39.92;;;8.10;86.90;;;;;;5028528;28;112763;-55
2024/03/29 00:23:09;;;;;;;43.15;38.95;;;8.10;86.80;;;;;;5027383;28;112722;-55
2024/03/29 00:25:35;;;;;;;39.47;35.65;;;8.20;87.20;;;;;;5027619;28;113192;-55
2024/03/29 00:28:01;;;;;;;37.95;34.35;;;8.20;87.20;;;;;;5026592;28;113835;-55
2024/03/29 00:30:26;;;;;;;37.65;34.13;;;8.30;87.00;;;;;;5028388;28;112956;-55
2024/03/29 00:32:52;;;;;;;39.20;35.58;;;8.40;86.70;;;;;;5028878;28;112784;-56
2024/03/29 00:35:20;;;;;;;39.90;36.10;;;8.40;86.70;;;;;;5013290;28;113191;-55
2024/03/29 00:37:45;;;;;;;38.42;34.75;;;8.50;86.80;;;;;;5027231;28;112881;-56
2024/03/29 00:40:11;;;;;;;38.65;35.13;;;8.60;86.60;;;;;;5028076;28;113322;-58
2024/03/29 00:42:37;;;;;;;36.83;33.33;;;8.70;86.40;;;;;;5028149;28;112644;-55
2024/03/29 00:45:03;;;;;;;34.67;31.48;;;8.70;86.20;;;;;;5026872;27;114449;-55
2024/03/29 00:47:28;;;;;;;33.58;30.45;;;8.70;86.10;;;;;;5027251;28;113283;-56
2024/03/29 00:49:54;;;;;;;34.13;31.00;;;8.80;85.90;;;;;;5027990;27;113147;-55
2024/03/29 00:52:20;;;;;;;35.72;32.47;;;8.80;85.70;;;;;;5028010;28;112735;-56
2024/03/29 00:54:46;;;;;;;34.45;31.35;;;8.80;85.70;;;;;;5027253;28;113459;-55
2024/03/29 00:57:14;;;;;;;39.03;35.38;;;8.80;85.80;;;;;;5026995;28;112761;-57
2024/03/29 00:59:40;;;;;;;38.95;35.30;;;8.80;85.80;;;;;;5026534;28;112742;-56
2024/03/29 01:02:05;;;;;;;39.88;36.08;;;8.80;85.80;;;;;;5028051;27;113078;-55
2024/03/29 01:04:31;;;;;;;38.13;34.58;;;8.80;85.90;;;;;;5026915;28;113136;-56
2024/03/29 01:06:57;;;;;;;41.55;37.72;;;8.80;85.90;;;;;;5026037;28;112730;-55
2024/03/29 01:09:22;;;;;;;39.35;35.65;;;8.80;86.20;;;;;;5027059;28;112683;-55
2024/03/29 01:11:50;;;;;;;36.67;33.33;;;8.80;86.20;;;;;;5027618;28;113461;-55
2024/03/29 01:14:16;;;;;;;37.50;34.10;;;8.90;86.20;;;;;;5026609;28;113496;-56
2024/03/29 01:16:42;;;;;;;40.67;36.88;;;8.90;86.10;;;;;;5026480;27;114060;-55
2024/03/29 01:19:10;;;;;;;39.47;35.67;;;8.90;86.20;;;;;;5027246;28;112565;-55
2024/03/29 01:21:36;;;;;;;40.45;36.25;;;9.00;85.80;;;;;;5027541;28;112766;-56
2024/03/29 01:24:02;;;;;;;43.35;39.05;;;9.00;85.80;;;;;;5026401;28;113845;-56
2024/03/29 01:26:28;;;;;;;43.63;39.63;;;8.90;86.00;;;;;;5015358;28;113231;-54
2024/03/29 01:28:54;;;;;;;46.33;41.92;;;9.00;86.20;;;;;;5027252;28;114259;-55
2024/03/29 01:31:19;;;;;;;43.22;39.17;;;9.00;86.30;;;;;;5027821;28;112840;-55
2024/03/29 01:33:45;;;;;;;44.97;40.72;;;9.00;86.40;;;;;;5020448;28;113128;-57
2024/03/29 01:36:11;;;;;;;45.28;41.08;;;9.00;86.30;;;;;;5018294;28;112627;-56
2024/03/29 01:38:36;;;;;;;49.17;44.17;;;9.00;86.30;;;;;;5027132;28;112688;-55
2024/03/29 01:41:02;;;;;;;50.15;45.35;;;9.10;86.40;;;;;;5027143;28;113113;-55
2024/03/29 01:43:28;;;;;;;40.70;36.90;;;9.10;86.20;;;;;;5026103;28;113427;-55
2024/03/29 01:45:55;;;;;;;40.75;36.97;;;9.10;86.30;;;;;;5025994;27;113862;-57
2024/03/29 01:48:23;;;;;;;42.97;38.95;;;9.10;86.20;;;;;;5025633;28;113095;-55
2024/03/29 01:50:50;;;;;;;40.20;36.38;;;9.20;86.00;;;;;;5026560;27;113660;-55
2024/03/29 01:53:19;;;;;;;42.67;38.65;;;8.90;86.40;;;;;;5026132;28;113159;-55
2024/03/29 01:55:45;;;;;;;45.75;41.42;;;9.00;86.70;;;;;;5025745;28;112734;-55
2024/03/29 01:58:11;;;;;;;47.03;42.58;;;9.00;86.80;;;;;;5026765;28;112870;-58
2024/03/29 02:00:50;;;;;;;45.25;40.95;;;9.10;86.90;;;;;;5014790;28;112821;-56
2024/03/29 02:03:16;;;;;;;44.00;39.80;;;9.10;86.80;;;;;;5009216;28;113252;-56
2024/03/29 02:05:43;;;;;;;46.97;42.13;;;9.20;86.60;;;;;;5012336;28;113956;-57
2024/03/29 02:08:10;;;;;;;47.05;42.45;;;9.10;86.60;;;;;;5021119;28;112778;-55
2024/03/29 02:10:36;;;;;;;46.08;41.38;;;9.20;86.80;;;;;;5018457;28;112823;-56
2024/03/29 02:13:03;;;;;;;46.72;42.03;;;9.30;86.80;;;;;;5025817;28;113343;-55
2024/03/29 02:15:30;;;;;;;46.67;41.90;;;9.30;86.70;;;;;;5025724;28;113005;-55
2024/03/29 02:17:56;;;;;;;46.45;41.70;;;9.40;86.80;;;;;;5012264;28;112909;-55
2024/03/29 02:20:22;;;;;;;48.08;43.35;;;9.40;86.60;;;;;;5026428;27;112675;-55
2024/03/29 02:22:55;;;;;;;47.60;42.90;;;9.40;86.50;;;;;;5025605;28;113342;-55
2024/03/29 02:25:21;;;;;;;47.17;42.15;;;9.50;86.40;;;;;;5025557;28;112588;-56
2024/03/29 02:27:47;;;;;;;47.70;43.10;;;9.40;86.60;;;;;;5025686;27;112709;-55
2024/03/29 02:30:19;;;;;;;47.78;43.00;;;9.40;86.90;;;;;;5026197;27;112713;-55
2024/03/29 02:32:46;;;;;;;47.72;43.03;;;9.40;86.70;;;;;;5025918;27;113153;-55
2024/03/29 02:35:11;;;;;;;49.58;44.47;;;9.40;86.70;;;;;;5011185;28;113100;-56
2024/03/29 02:37:38;;;;;;;50.00;44.90;;;9.50;86.80;;;;;;5026591;28;112556;-56
2024/03/29 02:40:05;;;;;;;47.92;43.38;;;9.50;86.60;;;;;;5026204;27;112722;-56
2024/03/29 02:42:32;;;;;;;48.20;43.33;;;9.50;86.60;;;;;;5023973;28;115296;-56
2024/03/29 02:44:57;;;;;;;45.97;41.47;;;9.50;86.60;;;;;;5024720;28;112859;-60
2024/03/29 02:47:23;;;;;;;47.47;42.72;;;9.50;86.60;;;;;;5026132;28;113341;-56
2024/03/29 02:49:49;;;;;;;49.35;44.22;;;9.60;86.40;;;;;;5026212;27;112696;-55
2024/03/29 02:52:14;;;;;;;52.60;47.13;;;9.50;86.40;;;;;;5025020;27;114984;-55
2024/03/29 02:54:43;;;;;;;51.33;46.15;;;9.50;86.60;;;;;;5025116;27;113895;-56
2024/03/29 02:57:09;;;;;;;50.78;45.58;;;9.60;86.70;;;;;;5025690;28;112641;-57
2024/03/29 02:59:34;;;;;;;47.80;42.95;;;9.50;86.70;;;;;;5026337;28;112755;-55
2024/03/29 03:02:00;;;;;;;49.60;44.40;;;9.50;86.60;;;;;;5025317;28;113275;-55
2024/03/29 03:04:26;;;;;;;49.20;44.22;;;9.50;86.70;;;;;;5024948;27;114031;-56
2024/03/29 03:06:52;;;;;;;50.40;45.40;;;9.50;86.70;;;;;;5026035;28;112720;-59
2024/03/29 03:12:01;;;;;;;53.88;47.92;;;9.50;86.80;;;;;;5025142;28;112954;-55
2024/03/29 03:14:27;;;;;;;52.40;46.95;;;9.40;87.00;;;;;;5023127;28;114210;-56
2024/03/29 03:16:53;;;;;;;52.80;47.17;;;9.40;87.00;;;;;;5024555;28;112680;-56
2024/03/29 03:19:19;;;;;;;52.78;47.38;;;9.50;87.00;;;;;;5025819;27;112652;-56
2024/03/29 03:21:44;;;;;;;52.10;46.53;;;9.40;87.10;;;;;;5025038;28;113441;-56
2024/03/29 03:24:11;;;;;;;51.55;46.25;;;9.40;87.20;;;;;;5025061;28;113005;-56
2024/03/29 03:26:38;;;;;;;53.35;47.65;;;9.40;87.20;;;;;;5025202;28;112859;-55
2024/03/29 03:29:04;;;;;;;53.58;48.03;;;9.50;87.10;;;;;;5026157;27;112726;-55
2024/03/29 03:31:29;;;;;;;53.50;47.80;;;9.40;87.30;;;;;;5027074;27;113533;-55
2024/03/29 03:33:55;;;;;;;52.72;47.28;;;9.40;87.20;;;;;;5028238;28;112955;-56
2024/03/29 03:36:21;;;;;;;50.85;45.55;;;9.40;87.10;;;;;;5029280;28;112719;-55
2024/03/29 03:38:47;;;;;;;50.47;45.10;;;9.40;87.40;;;;;;5029310;27;112847;-57
2024/03/29 03:41:12;;;;;;;50.60;45.13;;;9.40;87.30;;;;;;5028023;28;113118;-56
2024/03/29 03:43:38;;;;;;;49.50;44.30;;;9.40;87.20;;;;;;5028235;28;112928;-55
2024/03/29 03:46:04;;;;;;;50.25;45.05;;;9.40;87.20;;;;;;5028739;28;112631;-55
2024/03/29 03:48:29;;;;;;;52.22;46.80;;;9.40;87.30;;;;;;5029119;28;112928;-56
2024/03/29 03:50:58;;;;;;;52.58;47.05;;;9.40;87.20;;;;;;5026770;28;114278;-56
2024/03/29 03:53:24;;;;;;;51.28;45.92;;;9.50;87.30;;;;;;5027937;27;113836;-57
2024/03/29 03:55:50;;;;;;;50.92;45.40;;;9.60;87.20;;;;;;5028689;28;113106;-55
2024/03/29 03:58:15;;;;;;;52.00;43.95;;;9.50;87.20;;;;;;5028550;27;113050;-56
2024/03/29 04:00:41;;;;;;;51.67;46.08;;;9.50;87.20;;;;;;5028038;28;113381;-56
2024/03/29 04:03:07;;;;;;;53.25;47.65;;;9.60;87.10;;;;;;5027915;28;112677;-56
2024/03/29 04:05:33;;;;;;;52.95;46.75;;;9.60;87.00;;;;;;5028669;28;112596;-56
2024/03/29 04:07:59;;;;;;;50.92;45.17;;;9.60;87.10;;;;;;5022343;27;113165;-55
2024/03/29 04:10:25;;;;;;;51.30;45.85;;;9.60;87.10;;;;;;5020250;28;113125;-55
2024/03/29 04:12:51;;;;;;;52.63;46.95;;;9.60;87.00;;;;;;5027715;28;112870;-56
2024/03/29 04:15:17;;;;;;;50.05;44.70;;;9.60;87.00;;;;;;5028890;28;112729;-56
2024/03/29 04:17:42;;;;;;;51.17;45.60;;;9.60;87.00;;;;;;5028698;28;114355;-57
2024/03/29 04:20:08;;;;;;;49.20;43.95;;;9.60;86.90;;;;;;5027572;27;113246;-57
2024/03/29 04:22:34;;;;;;;47.60;42.60;;;9.60;86.90;;;;;;5027121;27;115390;-57
2024/03/29 04:25:00;;;;;;;48.15;43.00;;;9.60;86.90;;;;;;5028506;28;112695;-56
2024/03/29 04:27:26;;;;;;;48.78;43.45;;;9.60;87.00;;;;;;5028163;28;112846;-57
2024/03/29 04:29:55;;;;;;;47.22;42.17;;;9.60;87.00;;;;;;5027417;28;113853;-56
2024/03/29 04:32:21;;;;;;;48.53;43.33;;;9.60;86.90;;;;;;5027832;27;114096;-56
2024/03/29 04:34:50;;;;;;;46.33;41.50;;;9.60;87.00;;;;;;5028158;27;112498;-56
2024/03/29 04:37:16;;;;;;;46.35;41.45;;;9.60;87.00;;;;;;5028479;27;112672;-56
2024/03/29 04:39:46;;;;;;;46.05;41.08;;;9.60;86.90;;;;;;5027359;28;113157;-57
2024/03/29 04:42:12;;;;;;;48.13;42.47;;;9.60;86.80;;;;;;5026211;27;113168;-56
2024/03/29 04:44:38;;;;;;;45.42;40.63;;;9.70;86.60;;;;;;5027930;27;113079;-55
2024/03/29 04:47:04;;;;;;;45.20;40.42;;;9.70;86.70;;;;;;5027676;27;112896;-56
2024/03/29 04:49:33;;;;;;;44.90;40.20;;;9.70;86.60;;;;;;5027248;28;113170;-56
2024/03/29 04:51:59;;;;;;;54.03;44.83;;;9.70;86.40;;;;;;5026517;27;113847;-56
2024/03/29 04:54:26;;;;;;;49.92;44.50;;;9.70;86.50;;;;;;5028193;27;113081;-57
2024/03/29 04:56:52;;;;;;;48.92;43.53;;;9.70;86.60;;;;;;5027749;27;112766;-56
2024/03/29 04:59:20;;;;;;;44.88;40.30;;;9.70;86.60;;;;;;5026998;27;113293;-57
2024/03/29 05:01:50;;;;;;;49.65;44.30;;;9.70;86.60;;;;;;5026614;28;113793;-56
2024/03/29 05:04:24;;;;;;;47.20;42.28;;;9.80;86.40;;;;;;5027958;28;112864;-56
2024/03/29 05:06:54;;;;;;;46.95;42.05;;;9.80;86.40;;;;;;5027994;28;112508;-56
2024/03/29 05:09:20;;;;;;;48.40;43.30;;;9.80;86.40;;;;;;5012561;28;113225;-56
2024/03/29 05:11:46;;;;;;;49.08;43.72;;;9.80;86.20;;;;;;5026663;28;112858;-57
2024/03/29 05:14:18;;;;;;;46.67;41.90;;;9.80;86.20;;;;;;5027331;27;113505;-56
2024/03/29 05:16:45;;;;;;;49.65;44.25;;;9.90;86.20;;;;;;5027838;28;113747;-58
2024/03/29 05:19:11;;;;;;;51.45;45.85;;;9.90;86.10;;;;;;5026484;27;113178;-56
2024/03/29 05:21:37;;;;;;;50.28;45.03;;;9.80;86.10;;;;;;5026706;28;112644;-56
2024/03/29 05:24:02;;;;;;;51.50;46.15;;;9.90;86.10;;;;;;5027539;28;112761;-56
2024/03/29 05:26:28;;;;;;;49.60;44.30;;;9.90;86.20;;;;;;5027302;27;112873;-54
2024/03/29 05:28:57;;;;;;;50.55;45.03;;;9.90;86.10;;;;;;5026505;27;113207;-56
2024/03/29 05:31:23;;;;;;;50.25;44.95;;;9.90;85.90;;;;;;5026621;28;114375;-55
2024/03/29 05:33:49;;;;;;;52.90;47.13;;;10.00;85.80;;;;;;5027544;28;112711;-56
2024/03/29 05:36:14;;;;;;;51.72;46.25;;;9.90;85.90;;;;;;5027308;28;112742;-55
2024/03/29 05:38:40;;;;;;;53.30;47.60;;;9.90;86.10;;;;;;5026454;28;113255;-56
2024/03/29 05:41:06;;;;;;;54.03;48.22;;;9.90;86.10;;;;;;5026277;28;113799;-56
2024/03/29 05:43:32;;;;;;;55.85;49.75;;;9.90;86.20;;;;;;5027216;28;112974;-56
2024/03/29 05:45:57;;;;;;;54.58;48.53;;;9.90;86.10;;;;;;5027354;28;112719;-56
2024/03/29 05:48:23;;;;;;;55.42;48.15;;;9.90;86.40;;;;;;5025628;28;114273;-57
2024/03/29 05:50:49;;;;;;;54.40;48.08;;;9.90;86.50;;;;;;5025840;28;113772;-56
2024/03/29 05:53:15;;;;;;;54.63;48.55;;;9.90;86.40;;;;;;5026839;27;112873;-57
2024/03/29 05:55:40;;;;;;;56.20;49.83;;;10.00;86.30;;;;;;5027127;28;112960;-57
2024/03/29 05:58:06;;;;;;;55.72;47.70;;;10.00;86.30;;;;;;5025925;28;115081;-56
2024/03/29 06:00:35;;;;;;;54.13;48.03;;;10.00;86.20;;;;;;5025622;28;112965;-57
2024/03/29 06:03:03;;;;;;;54.38;47.00;;;10.00;86.20;;;;;;5026751;27;112832;-57
2024/03/29 06:05:29;;;;;;;51.45;45.33;;;10.00;86.30;;;;;;5026937;28;112947;-56
2024/03/29 06:07:55;;;;;;;53.38;46.30;;;10.00;86.40;;;;;;5019975;28;113667;-57
2024/03/29 06:10:21;;;;;;;52.55;45.22;;;10.00;86.30;;;;;;5017853;28;112701;-56
2024/03/29 06:12:47;;;;;;;51.00;44.55;;;10.00;86.40;;;;;;5026627;28;112941;-57
2024/03/29 06:17:57;;;;;;;51.17;43.22;;;10.00;86.30;;;;;;5025974;28;112960;-56
2024/03/29 06:20:23;;;;;;;48.15;42.88;;;10.10;86.10;;;;;;5025509;27;113683;-56
2024/03/29 06:22:49;;;;;;;47.63;41.08;;;10.20;86.10;;;;;;5026638;28;112669;-56
2024/03/29 06:25:15;;;;;;;45.92;41.03;;;10.10;85.90;;;;;;5026664;27;112943;-56
2024/03/29 06:27:43;;;;;;;46.10;40.25;;;10.20;85.90;;;;;;5024850;28;113353;-57
2024/03/29 06:30:09;;;;;;;46.83;40.15;;;10.20;85.60;;;;;;5025448;27;115391;-57
2024/03/29 06:32:36;;;;;;;49.38;40.20;;;10.30;85.80;;;;;;5026844;27;112640;-57
2024/03/29 06:35:03;;;;;;;44.95;39.95;;;10.30;85.60;;;;;;5026473;28;113464;-57
2024/03/29 06:37:29;;;;;;;45.88;38.72;;;10.30;85.80;;;;;;5025633;28;113164;-56
2024/03/29 06:39:55;;;;;;;42.25;36.80;;;10.30;85.80;;;;;;5025367;28;112963;-56
2024/03/29 06:42:22;;;;;;;40.38;35.90;;;10.30;86.10;;;;;;5026422;28;112540;-56
2024/03/29 06:44:47;;;;;;;43.35;37.42;;;10.30;86.00;;;;;;5026290;27;112792;-56
2024/03/29 06:47:13;;;;;;;42.00;37.42;;;10.30;85.90;;;;;;5025232;28;113145;-56
2024/03/29 06:49:39;;;;;;;40.72;35.30;;;10.20;86.10;;;;;;5025269;28;112964;-56
2024/03/29 06:52:05;;;;;;;41.85;35.55;;;10.20;86.20;;;;;;5025932;27;112588;-55
2024/03/29 06:54:32;;;;;;;38.47;33.88;;;10.30;86.10;;;;;;5026199;27;112926;-56
2024/03/29 06:56:58;;;;;;;38.85;33.00;;;10.30;86.00;;;;;;5023215;28;116000;-56
2024/03/29 06:59:24;;;;;;;36.45;31.95;;;10.30;85.90;;;;;;5025055;28;112602;-57
2024/03/29 07:01:51;;;;;;;35.60;31.20;;;10.40;86.00;;;;;;5025757;27;112863;-56
2024/03/29 07:04:22;;;;;;;35.53;30.77;;;10.40;86.10;;;;;;5025987;28;112767;-56
2024/03/29 07:06:47;;;;;;;34.10;28.80;;;10.40;86.00;;;;;;5024008;27;114554;-56
2024/03/29 07:09:16;;;;;;;30.83;27.10;;;10.40;86.10;;;;;;5010662;28;112593;-56
2024/03/29 07:11:41;;;;;;;28.15;25.10;;;10.40;86.00;;;;;;5025765;28;112617;-56
2024/03/29 07:14:08;;;;;;;28.75;24.55;;;10.50;86.00;;;;;;5024405;28;112717;-56
2024/03/29 07:16:33;;;;;;;28.08;24.00;;;10.50;85.90;;;;;;5024861;28;113243;-56
2024/03/29 07:18:59;;;;;;;26.45;22.92;;;10.50;86.10;;;;;;5023433;28;115386;-56
2024/03/29 07:21:25;;;;;;;27.10;23.15;;;10.50;86.00;;;;;;5025891;28;112758;-56
2024/03/29 07:23:51;;;;;;;25.50;22.27;;;10.60;85.80;;;;;;5026072;28;112656;-57
2024/03/29 07:26:16;;;;;;;29.08;23.02;;;10.70;85.70;;;;;;5024630;28;113808;-58
2024/03/29 07:28:42;;;;;;;26.85;20.13;;;10.80;85.50;;;;;;5024136;27;113523;-56
2024/03/29 07:31:08;;;;;;;25.35;21.55;;;10.80;85.40;;;;;;5025722;28;113093;-56
2024/03/29 07:33:34;;;;;;;25.38;21.23;;;10.80;85.40;;;;;;5023487;27;112671;-56
2024/03/29 07:36:00;;;;;;;24.15;20.75;;;10.90;85.30;;;;;;5024585;28;113345;-58
2024/03/29 07:38:26;;;;;;;25.10;19.83;;;10.90;85.20;;;;;;5024457;28;113258;-56
2024/03/29 07:40:52;;;;;;;23.73;19.92;;;11.00;85.00;;;;;;5025370;28;112950;-56
2024/03/29 07:43:24;;;;;;;21.80;18.05;;;11.00;85.10;;;;;;5025537;28;112678;-56
2024/03/29 07:45:50;;;;;;;25.65;18.30;;;11.00;85.00;;;;;;5024562;27;113739;-56
2024/03/29 07:48:17;;;;;;;24.02;19.10;;;10.90;85.00;;;;;;5024113;28;113839;-55
2024/03/29 07:50:44;;;;;;;26.13;19.38;;;10.90;85.20;;;;;;5025248;27;112848;-56
2024/03/29 07:53:11;;;;;;;23.08;18.55;;;10.90;85.60;;;;;;5025454;27;112744;-56
2024/03/29 07:55:38;;;;;;;20.13;16.98;;;11.00;85.50;;;;;;5024495;28;114629;-56
2024/03/29 07:58:05;;;;;;;23.73;17.50;;;11.00;85.30;;;;;;5012146;28;114410;-56
2024/03/29 08:00:34;;;;;;;23.70;17.92;;;11.20;85.00;;;;;;5015183;27;112964;-56
2024/03/29 08:03:00;;;;;;;19.05;15.70;;;11.30;84.40;;;;;;5016834;27;112890;-56
2024/03/29 08:05:29;;;;;;;19.15;16.13;;;11.40;84.10;;;;;;5015127;27;114226;-55
2024/03/29 08:07:55;;;;;;;20.35;15.18;;;11.40;84.30;;;;;;5014648;27;114151;-55
2024/03/29 08:10:21;;;;;;;16.70;14.80;;;11.40;84.00;;;;;;5018132;28;113061;-56
2024/03/29 08:12:46;;;;;;;21.50;14.05;;;11.50;84.00;;;;;;5023017;28;112795;-55
2024/03/29 08:15:12;;;;;;;20.80;13.82;;;11.70;83.80;;;;;;5023829;28;113228;-57
2024/03/29 08:17:38;;;;;;;20.98;13.90;;;11.80;83.50;;;;;;5025291;27;113559;-56
2024/03/29 08:20:04;;;;;;;16.58;12.95;;;11.90;83.10;;;;;;5027679;28;112511;-56
2024/03/29 08:22:33;;;;;;;13.50;12.05;;;12.00;83.00;;;;;;5022554;28;112769;-56
2024/03/29 08:25:00;;;;;;;12.63;11.30;;;12.10;82.50;;;;;;5024556;28;113273;-57
2024/03/29 08:27:26;;;;;;;13.23;11.65;;;12.30;82.30;;;;;;5026359;28;112967;-55
2024/03/29 08:29:52;;;;;;;17.70;11.57;;;12.20;82.20;;;;;;5027380;27;115179;-56
2024/03/29 08:32:18;;;;;;;15.00;11.07;;;12.20;82.10;;;;;;5028986;27;112784;-57
2024/03/29 08:34:44;;;;;;;12.05;10.68;;;12.40;81.90;;;;;;5026525;28;114326;-55
2024/03/29 08:37:09;;;;;;;16.05;11.02;;;12.50;81.40;;;;;;5025852;28;113623;-56
2024/03/29 08:39:37;;;;;;;11.32;10.13;;;12.50;81.40;;;;;;5027630;27;112735;-56
2024/03/29 08:42:05;;;;;;;16.70;10.45;;;12.40;81.60;;;;;;5021128;28;112663;-56
2024/03/29 08:44:33;;;;;;;13.68;9.95;;;12.50;81.30;;;;;;5020273;28;114434;-56
2024/03/29 08:47:01;;;;;;;11.68;9.30;;;12.50;81.00;;;;;;5027626;27;112709;-56
2024/03/29 08:49:27;;;;;;;10.75;9.30;;;12.50;80.90;;;;;;5027948;27;112444;-57
2024/03/29 08:51:53;;;;;;;13.27;9.30;;;12.30;81.30;;;;;;5028142;28;112793;-56
2024/03/29 08:54:19;;;;;;;11.68;8.85;;;12.30;81.70;;;;;;5027375;28;113256;-57
2024/03/29 08:56:45;;;;;;;14.18;8.43;;;12.40;81.50;;;;;;5027400;27;112797;-57
2024/03/29 08:59:13;;;;;;;12.05;8.60;;;12.40;81.20;;;;;;5017270;28;113011;-55
2024/03/29 09:01:44;;;;;;;9.70;7.95;;;12.40;81.10;;;;;;5027982;27;112657;-56
2024/03/29 09:04:11;;;;;;;9.88;7.93;;;12.40;81.20;;;;;;5026759;28;115972;-56
2024/03/29 09:06:40;;;;;;;10.73;8.23;;;12.50;81.10;;;;;;5026946;27;113870;-56
2024/03/29 09:09:06;;;;;;;12.45;8.07;;;12.60;81.00;;;;;;5019771;28;112952;-56
2024/03/29 09:11:33;;;;;;;10.60;7.75;;;12.60;81.20;;;;;;5028223;28;113060;-56
2024/03/29 09:13:59;;;;;;;8.60;6.93;;;12.60;81.00;;;;;;5027050;27;113159;-56
2024/03/29 09:16:27;;;;;;;10.18;7.07;;;12.50;81.10;;;;;;5026890;27;113067;-56
2024/03/29 09:18:54;;;;;;;8.05;7.05;;;12.60;81.30;;;;;;5027609;28;112709;-55
2024/03/29 09:21:20;;;;;;;9.98;7.80;;;12.70;80.90;;;;;;5028264;28;112720;-55
2024/03/29 09:23:48;;;;;;;9.48;7.03;;;12.80;81.10;;;;;;5026019;28;114250;-54
2024/03/29 09:26:15;;;;;;;11.68;7.45;;;12.90;80.70;;;;;;5023365;27;112778;-54
2024/03/29 09:28:41;;;;;;;9.82;7.55;;;12.90;80.40;;;;;;5012791;27;112890;-54
2024/03/29 09:31:07;;;;;;;10.88;7.32;;;13.00;80.30;;;;;;5026244;28;112777;-54
2024/03/29 09:33:32;;;;;;;11.27;7.40;;;13.30;79.90;;;;;;5026794;27;113559;-55
2024/03/29 09:35:59;;;;;;;8.75;6.70;;;13.40;79.60;;;;;;5026559;28;113656;-54
2024/03/29 09:38:26;;;;;;;11.20;7.28;;;13.40;79.40;;;;;;5026708;28;112624;-56
2024/03/29 09:41:11;;;;;;;10.35;7.45;;;13.20;79.40;;;;;;5027603;28;112774;-53
2024/03/29 09:43:39;;;;;;;13.27;7.10;;;13.30;79.40;;;;;;5026312;28;113318;-55
2024/03/29 09:46:06;;;;;;;11.70;8.95;;;13.60;79.20;;;;;;5026410;28;113741;-54
2024/03/29 09:48:36;;;;;;;10.05;7.63;;;13.90;78.10;;;;;;5019599;28;112536;-53
2024/03/29 09:51:06;;;;;;;12.27;7.70;;;14.10;77.80;;;;;;5027846;27;112723;-54
2024/03/29 09:53:38;;;;;;;12.63;7.43;;;14.80;76.30;;;;;;5026565;27;114191;-55
2024/03/29 09:56:05;;;;;;;9.60;6.97;;;15.30;74.50;;;;;;5026344;28;113401;-56
2024/03/29 09:58:32;;;;;;;11.40;6.07;;;15.70;73.70;;;;;;5027314;28;112789;-55
2024/03/29 10:00:57;;;;;;;13.95;6.25;;;15.40;73.80;;;;;;5026798;28;112698;-55
2024/03/29 10:03:29;;;;;;;9.85;6.60;;;15.40;73.90;;;;;;5025659;28;114431;-57
2024/03/29 10:05:59;;;;;;;9.10;6.10;;;15.70;73.20;;;;;;5025830;28;114402;-56
2024/03/29 10:08:30;;;;;;;9.38;6.13;;;15.90;72.70;;;;;;5016806;28;112547;-54
2024/03/29 10:10:56;;;;;;;8.55;5.68;;;16.00;72.10;;;;;;5021498;28;113172;-54
2024/03/29 10:13:22;;;;;;;12.50;5.63;;;16.10;71.20;;;;;;5016092;28;113152;-54
2024/03/29 10:15:55;;;;;;;10.43;5.63;;;16.30;70.80;;;;;;5026308;27;114350;-54
2024/03/29 10:18:26;;;;;;;11.52;5.93;;;16.90;69.30;;;;;;5019442;27;112593;-55
2024/03/29 10:21:03;;;;;;;10.27;5.35;;;17.10;68.10;;;;;;5021507;28;112920;-55
2024/03/29 10:23:30;;;;;;;8.75;5.32;;;17.20;69.10;;;;;;5016370;28;113226;-57
2024/03/29 10:25:56;;;;;;;10.23;5.45;;;17.80;67.00;;;;;;5025738;28;112729;-55
2024/03/29 10:28:23;;;;;;;9.48;5.38;;;18.70;64.50;;;;;;5026069;28;112977;-55
2024/03/29 10:30:49;;;;;;;6.00;4.50;;;19.80;62.20;;;;;;5026874;27;112905;-55
2024/03/29 10:33:16;;;;;;;6.22;4.15;;;21.60;56.30;;;;;;5025746;27;113530;-55
2024/03/29 10:35:45;;;;;;;6.90;4.35;;;22.00;54.20;;;;;;5025694;27;113845;-55
2024/03/29 10:38:11;;;;;;;6.53;4.32;;;23.40;51.30;;;;;;5026358;28;113033;-56
2024/03/29 10:40:41;;;;;;;6.88;4.07;;;24.10;49.30;;;;;;5027141;27;113146;-56
2024/03/29 10:43:16;;;;;;;8.48;4.25;;;26.90;44.10;;;;;;5025525;28;114701;-54
2024/03/29 10:45:46;;;;;;;6.97;3.75;;;28.20;41.20;;;;;;5025259;27;113014;-56
2024/03/29 10:48:15;;;;;;;6.97;3.70;;;29.00;39.20;;;;;;5021839;28;112953;-56
2024/03/29 10:50:42;;;;;;;6.68;4.32;;;28.80;39.20;;;;;;5026496;27;112759;-56
2024/03/29 10:53:11;;;;;;;7.43;4.40;;;25.80;43.60;;;;;;5025609;28;113287;-56
2024/03/29 10:55:37;;;;;;;7.35;4.10;;;26.30;43.70;;;;;;5025446;27;113283;-56
2024/03/29 10:58:06;;;;;;;6.15;3.60;;;27.40;42.30;;;;;;5037556;27;112829;-55
2024/03/29 11:00:40;;;;;;;5.65;3.80;;;29.40;38.70;;;;;;5023716;28;113667;-57
2024/03/29 11:03:28;;;;;;;7.80;4.10;;;28.80;39.10;;;;;;5024960;28;113213;-56
2024/03/29 11:06:00;;;;;;;7.07;4.05;;;27.00;41.70;;;;;;5015803;28;114209;-56
2024/03/29 11:08:27;;;;;;;;;;;24.80;45.60;;;;;;5013853;28;112778;-56
2024/03/29 11:10:57;;;;;;;5.78;3.78;;;24.30;47.20;;;;;;5021221;28;113007;-57
2024/03/29 11:13:32;;;;;;;9.27;4.05;;;24.60;46.90;;;;;;5016156;27;113240;-56
2024/03/29 11:16:00;;;;;;;8.30;4.50;;;23.80;48.30;;;;;;5010780;28;112941;-56
2024/03/29 11:18:28;;;;;;;7.68;3.80;;;22.40;51.30;;;;;;5010351;28;112633;-56
2024/03/29 11:20:55;;;;;;;9.18;4.40;;;21.60;53.90;;;;;;5020358;28;113034;-57
2024/03/29 11:23:22;;;;;;;5.97;3.38;;;24.10;48.90;;;;;;5024196;27;113245;-56
2024/03/29 11:25:59;;;;;;;7.00;3.50;;;27.40;42.80;;;;;;5022340;28;113766;-57
2024/03/29 11:28:37;;;;;;;6.38;3.50;;;30.60;38.10;;;;;;5022330;28;112778;-57
2024/03/29 11:31:08;;;;;;;7.45;3.75;;;33.00;33.80;;;;;;5025251;28;112662;-57
2024/03/29 11:33:35;;;;;;;5.68;3.17;;;35.70;30.70;;;;;;5024839;27;114557;-58
2024/03/29 11:36:23;;;;;;;7.93;3.80;;;35.60;31.00;;;;;;5020661;28;112722;-57
2024/03/29 11:38:52;;;;;;;7.22;4.05;;;35.60;30.20;;;;;;5024396;28;112952;-58
2024/03/29 11:41:21;;;;;;;6.35;4.30;;;33.90;31.40;;;;;;5024878;28;113630;-57
2024/03/29 11:43:47;;;;;;;6.55;3.63;;;32.10;34.20;;;;;;5024155;28;113355;-59
2024/03/29 11:46:15;;;;;;;7.78;4.05;;;35.00;31.00;;;;;;5021876;27;112727;-57
2024/03/29 11:48:41;;;;;;;5.78;3.45;;;35.40;30.40;;;;;;5024712;27;113218;-58
2024/03/29 11:51:09;;;;;;;8.35;3.78;;;33.10;32.60;;;;;;5025769;27;114159;-57
2024/03/29 11:53:35;;;;;;;7.75;3.90;;;30.80;35.90;;;;;;5027630;28;114651;-57
2024/03/29 11:56:03;;;;;;;9.20;4.30;;;29.40;37.90;;;;;;5027441;27;113134;-57
2024/03/29 11:58:30;;;;;;;7.18;3.63;;;27.70;40.40;;;;;;5026975;28;113781;-57
2024/03/29 12:00:57;;;;;;;8.18;3.78;;;28.40;40.60;;;;;;5029575;27;113022;-57
2024/03/29 12:03:28;;;;;;;8.98;3.60;;;33.90;32.80;;;;;;5027776;28;114512;-59
2024/03/29 12:05:58;;;;;;;7.73;3.77;;;36.80;29.20;;;;;;5028466;27;113180;-58
2024/03/29 12:08:26;;;;;;;6.35;3.65;;;32.40;33.20;;;;;;5017979;27;115269;-58
2024/03/29 12:10:52;;;;;;;7.63;3.90;;;27.90;39.50;;;;;;5028963;27;112690;-57
2024/03/29 12:13:18;;;;;;;8.80;3.92;;;24.40;46.60;;;;;;5026462;27;113169;-58
2024/03/29 12:15:44;;;;;;;8.70;4.15;;;23.10;50.20;;;;;;5028108;28;113114;-57
2024/03/29 12:18:11;;;;;;;7.05;4.32;;;23.80;49.10;;;;;;5029222;28;112628;-57
2024/03/29 12:20:37;;;;;;;7.68;4.43;;;24.10;48.20;;;;;;5029377;27;112808;-58
2024/03/29 12:23:06;;;;;;;10.35;4.45;;;23.50;49.60;;;;;;5028083;28;113607;-58
2024/03/29 12:25:33;;;;;;;10.43;4.28;;;22.50;51.40;;;;;;5028174;28;114056;-56
2024/03/29 12:27:59;;;;;;;9.38;4.53;;;21.90;54.00;;;;;;5044088;27;112643;-56
2024/03/29 12:30:26;;;;;;;8.00;4.25;;;22.40;52.90;;;;;;5028969;27;112782;-57
2024/03/29 12:33:06;;;;;;;8.65;4.22;;;23.40;50.40;;;;;;5028601;28;113262;-56